Time;durP1;ratioP1;P1;durP2;ratioP2;P2;SDS_P1;SDS_P2;PMS_P1;PMS_P2;Temp;Humidity;BMP_temperature;BMP_pressure;BME280_temperature;BME280_humidity;BME280_pressure;Samples;Min_cycle;Max_cycle;Signal;HPM_P1;HPM_P2
2022/08/28 00:10:48;;;;;;;20.00;13.20;;;;;;;19.98;66.96;98217.08;431629;1274;108776;-40
2022/08/28 00:20:54;;;;;;;;;;;;;;;19.92;67.39;98215.35;432071;1274;99922;-41
2022/08/28 00:31:03;;;;;;;19.50;14.30;;;;;;;19.87;67.72;98208.66;432140;1274;112390;-40
2022/08/28 00:41:09;;;;;;;21.60;16.30;;;;;;;19.78;68.00;98207.75;431825;1274;108485;-40
2022/08/28 01:01:46;;;;;;;18.50;13.70;;;;;;;19.61;68.76;98202.44;431780;1274;109068;-40
2022/08/28 01:11:55;;;;;;;22.20;13.50;;;;;;;19.54;69.16;98198.98;432422;1263;99299;-40
2022/08/28 01:22:02;;;;;;;17.60;14.60;;;;;;;19.52;69.51;98198.24;431890;1273;112357;-40
2022/08/28 01:32:10;;;;;;;25.70;15.50;;;;;;;19.47;69.70;98194.92;431845;1274;109436;-39
2022/08/28 01:42:17;;;;;;;24.80;15.70;;;;;;;19.34;70.07;98196.23;431209;1274;100760;-40
2022/08/28 01:52:24;;;;;;;24.70;16.80;;;;;;;19.25;70.57;98191.84;431711;1273;109182;-40
2022/08/28 02:02:32;;;;;;;21.70;15.50;;;;;;;19.36;70.70;98203.54;430983;1274;98845;-39
2022/08/28 02:22:48;;;;;;;22.10;15.90;;;;;;;19.18;71.26;98217.98;432076;1272;107102;-39
2022/08/28 02:32:55;;;;;;;24.40;16.60;;;;;;;19.05;71.53;98215.41;431571;1274;99340;-39
2022/08/28 02:43:03;;;;;;;32.10;21.40;;;;;;;18.98;71.79;98214.16;432041;1273;107782;-39
2022/08/28 03:03:17;;;;;;;28.30;20.40;;;;;;;18.78;72.32;98211.69;430893;1273;111570;-41
2022/08/28 03:13:25;;;;;;;28.20;20.60;;;;;;;18.72;72.55;98220.85;431985;1273;109391;-40
2022/08/28 03:23:33;;;;;;;31.10;20.10;;;;;;;18.67;72.87;98216.02;431964;1272;99343;-40
2022/08/28 03:33:41;;;;;;;23.00;18.00;;;;;;;18.73;73.36;98203.11;431972;1273;109047;-41
2022/08/28 03:43:50;;;;;;;27.60;18.70;;;;;;;18.83;73.53;98199.44;431775;1273;99303;-42
2022/08/28 03:53:57;;;;;;;28.40;19.00;;;;;;;18.86;73.60;98202.66;431984;1273;112526;-41
2022/08/28 04:04:04;;;;;;;26.50;18.40;;;;;;;18.87;73.72;98217.96;431591;1274;109519;-41
2022/08/28 04:14:11;;;;;;;24.20;17.90;;;;;;;18.88;73.66;98222.17;432322;1273;98841;-41
2022/08/28 04:24:18;;;;;;;21.60;18.60;;;;;;;18.89;73.88;98230.52;432099;1273;109054;-41
2022/08/28 04:34:26;;;;;;;24.10;17.00;;;;;;;19.04;74.07;98225.17;431907;1273;99281;-42
2022/08/28 04:44:33;;;;;;;25.00;19.10;;;;;;;19.28;74.02;98220.85;431127;1274;112555;-39
2022/08/28 04:54:40;;;;;;;18.40;16.40;;;;;;;19.42;73.94;98224.66;431774;1273;108789;-42
2022/08/28 05:04:47;;;;;;;23.20;17.10;;;;;;;19.82;74.22;98224.45;432086;1273;99256;-44
2022/08/28 05:14:55;;;;;;;27.20;19.30;;;;;;;20.04;73.94;98242.02;431947;1273;108850;-41
2022/08/28 05:25:03;;;;;;;24.60;19.50;;;;;;;19.87;73.81;98239.31;432125;1273;98793;-42
2022/08/28 05:35:11;;;;;;;26.50;17.90;;;;;;;19.74;74.05;98236.11;432201;1273;112553;-40
2022/08/28 05:45:21;;;;;;;27.70;17.00;;;;;;;19.72;74.04;98240.60;431551;1274;109092;-40
2022/08/28 05:55:28;;;;;;;25.50;18.30;;;;;;;19.94;74.26;98243.64;431834;1273;99235;-40
2022/08/28 06:05:36;;;;;;;28.50;19.70;;;;;;;20.16;74.38;98246.65;431897;1273;108919;-40
2022/08/28 06:15:42;;;;;;;22.90;18.70;;;;;;;20.41;74.48;98247.88;430887;1273;1613984;-40
2022/08/28 06:25:51;;;;;;;21.40;17.10;;;;;;;21.31;74.31;98243.38;431811;1274;111382;-39
2022/08/28 06:35:58;;;;;;;24.10;17.90;;;;;;;21.56;73.79;98240.43;432217;1273;108829;-39
2022/08/28 06:46:06;;;;;;;23.10;19.90;;;;;;;21.66;73.74;98240.75;431864;1273;99242;-39
2022/08/28 06:56:18;;;;;;;23.20;18.80;;;;;;;21.78;73.88;98238.04;432132;1273;108910;-39
2022/08/28 07:06:31;;;;;;;27.90;19.40;;;;;;;22.04;74.01;98237.80;431598;1274;99972;-39
2022/08/28 07:16:39;;;;;;;22.90;18.80;;;;;;;22.41;74.15;98241.85;432070;1273;112903;-39
2022/08/28 07:26:47;;;;;;;24.00;17.80;;;;;;;22.95;74.10;98254.56;432057;1273;107761;-39
2022/08/28 07:36:57;;;;;;;18.50;16.30;;;;;;;23.42;73.28;98267.58;432214;1273;98821;-39
2022/08/28 07:47:16;;;;;;;20.80;15.30;;;;;;;23.79;72.82;98265.23;432358;1273;109030;-39
2022/08/28 07:57:30;;;;;;;18.20;14.50;;;;;;;24.33;72.55;98265.13;432272;1273;99250;-41
2022/08/28 08:17:48;;;;;;;12.00;9.00;;;;;;;25.29;71.43;98269.70;432239;1273;108957;-40
2022/08/28 08:27:55;;;;;;;11.40;10.20;;;;;;;25.94;70.28;98262.55;432194;1273;99277;-41
2022/08/28 08:38:02;;;;;;;10.00;9.00;;;;;;;26.67;70.27;98271.13;432071;1273;108925;-41
2022/08/28 08:48:26;;;;;;;12.40;7.70;;;;;;;27.76;68.89;98280.17;432237;1273;99220;-41
2022/08/28 08:58:36;;;;;;;10.00;7.60;;;;;;;28.12;66.98;98279.25;432222;1273;111204;-42
2022/08/28 09:08:49;;;;;;;11.80;8.20;;;;;;;27.70;65.70;98278.42;431667;1274;108688;-41
2022/08/28 09:18:56;;;;;;;11.80;9.60;;;;;;;28.08;65.43;98279.64;432246;1273;99965;-42
2022/08/28 09:29:02;;;;;;;10.00;9.10;;;;;;;28.50;64.49;98284.48;432092;1273;110069;-42
2022/08/28 09:39:11;;;;;;;11.50;9.60;;;;;;;28.41;63.85;98289.98;431647;1274;99244;-40
2022/08/28 09:49:23;;;;;;;11.90;9.40;;;;;;;28.63;63.24;98294.15;431840;1274;112922;-41
2022/08/28 09:59:32;;;;;;;13.80;9.40;;;;;;;28.65;62.45;98289.62;432206;1273;108323;-39
2022/08/28 10:09:37;;;;;;;12.80;9.90;;;;;;;28.55;61.63;98284.96;432052;1273;99243;-40
2022/08/28 10:19:43;;;;;;;12.50;9.40;;;;;;;28.78;61.89;98286.41;432011;1273;108958;-42
2022/08/28 10:29:49;;;;;;;12.10;10.60;;;;;;;28.60;60.86;98286.40;431629;1273;98854;-42
2022/08/28 10:39:54;;;;;;;10.40;9.40;;;;;;;28.32;60.88;98287.36;431519;1274;111506;-41
2022/08/28 10:50:02;;;;;;;12.80;10.20;;;;;;;28.32;60.74;98286.26;432269;1274;108985;-39
2022/08/28 11:00:14;;;;;;;11.70;10.50;;;;;;;28.17;60.75;98288.30;432314;1273;98015;-43
2022/08/28 11:10:23;;;;;;;11.80;10.60;;;;;;;28.15;60.43;98278.23;432113;1273;112392;-41
2022/08/28 11:20:30;;;;;;;12.20;11.00;;;;;;;27.82;60.01;98278.16;432151;1273;109278;-41
2022/08/28 11:30:37;;;;;;;13.70;12.10;;;;;;;27.33;60.54;98296.23;432129;1274;98080;-40
2022/08/28 11:40:55;;;;;;;13.40;11.70;;;;;;;27.03;61.07;98292.51;432093;1273;108543;-41
2022/08/28 11:51:06;;;;;;;9.80;7.20;;;;;;;26.19;61.40;98311.19;431384;1274;98820;-41
2022/08/28 12:11:51;;;;;;;6.80;5.90;;;;;;;24.65;62.89;98299.06;431865;1274;108906;-41
2022/08/28 12:22:04;;;;;;;7.00;4.20;;;;;;;24.22;63.34;98286.72;432047;1274;99529;-41
2022/08/28 12:32:29;;;;;;;6.30;3.90;;;;;;;23.79;63.52;98297.66;432270;1274;109173;-41
2022/08/28 12:42:39;;;;;;;6.20;5.20;;;;;;;23.34;64.03;98300.70;432159;1274;99095;-41
2022/08/28 12:52:47;;;;;;;4.60;4.20;;;;;;;23.26;64.74;98309.45;431748;1274;112634;-40
2022/08/28 13:02:55;;;;;;;6.40;3.90;;;;;;;23.62;65.33;98322.45;432021;1274;109007;-40
2022/08/28 13:13:07;;;;;;;7.40;5.30;;;;;;;23.83;65.21;98334.84;431926;1273;98850;-40
2022/08/28 13:23:28;;;;;;;7.60;6.40;;;;;;;23.69;65.35;98327.46;432167;1273;109075;-40
2022/08/28 13:33:35;;;;;;;9.90;6.80;;;;;;;23.58;65.69;98322.52;432145;1273;99242;-40
2022/08/28 13:43:42;;;;;;;6.50;5.90;;;;;;;23.58;66.24;98311.13;432015;1273;112548;-40
2022/08/28 13:53:49;;;;;;;7.60;4.80;;;;;;;23.66;66.37;98319.78;431014;1276;107121;-40
2022/08/28 14:03:58;;;;;;;6.30;5.20;;;;;;;23.44;66.16;98324.23;432302;1273;99260;-40
2022/08/28 14:14:04;;;;;;;;;;;;;;;23.20;66.43;98350.44;430877;1276;109022;-41
2022/08/28 14:24:12;;;;;;;8.60;6.00;;;;;;;23.05;66.78;98361.05;432114;1273;98847;-39
2022/08/28 14:34:16;;;;;;;10.50;5.60;;;;;;;22.78;67.47;98352.38;432327;1273;112524;-40
2022/08/28 14:44:23;;;;;;;7.70;6.40;;;;;;;22.73;67.89;98349.45;432070;1273;109112;-41
2022/08/28 14:54:30;;;;;;;10.00;6.80;;;;;;;22.52;68.08;98348.23;431920;1273;98035;-39
2022/08/28 15:04:38;;;;;;;11.10;7.10;;;;;;;22.34;68.52;98360.12;432005;1274;109284;-40
2022/08/28 15:14:45;;;;;;;9.60;7.60;;;;;;;22.40;69.05;98381.39;431971;1274;99162;-40
2022/08/28 15:25:02;;;;;;;8.60;7.10;;;;;;;22.34;69.41;98382.33;430916;1275;112523;-40
2022/08/28 15:35:10;;;;;;;11.50;7.70;;;;;;;22.47;69.72;98371.34;431036;1274;108869;-40
2022/08/28 15:45:18;;;;;;;16.00;11.30;;;;;;;22.59;70.08;98366.06;431231;1273;99294;-40
2022/08/28 16:05:32;;;;;;;16.60;11.70;;;;;;;22.86;70.92;98366.31;430849;1276;98853;-40
2022/08/28 16:45:59;;;;;;;15.00;8.20;;;;;;;22.11;71.96;98386.17;432000;1273;109169;-40
2022/08/28 16:56:07;;;;;;;15.00;8.80;;;;;;;21.84;72.68;98387.09;432164;1273;99654;-40
2022/08/28 17:06:15;;;;;;;10.60;8.80;;;;;;;21.63;73.29;98373.79;431958;1273;112889;-40
2022/08/28 17:16:22;;;;;;;10.30;8.80;;;;;;;21.56;73.83;98362.83;431981;1273;108943;-40
2022/08/28 17:26:30;;;;;;;13.20;9.00;;;;;;;21.39;74.03;98356.42;432253;1273;99323;-40
2022/08/28 17:36:38;;;;;;;13.40;11.40;;;;;;;21.14;74.28;98356.88;432066;1273;109476;-41
2022/08/28 17:46:44;;;;;;;16.30;12.60;;;;;;;20.95;75.00;98359.26;432280;1273;98879;-42
2022/08/28 17:56:53;;;;;;;15.20;13.40;;;;;;;20.88;75.36;98370.84;431570;1273;112103;-42
2022/08/28 18:07:00;;;;;;;15.00;12.70;;;;;;;20.76;75.81;98382.73;430191;1273;1964119;-41
2022/08/28 18:27:14;;;;;;;;;;;;;;;20.66;76.58;98406.13;432001;1273;108049;-41
2022/08/28 18:37:22;;;;;;;17.20;13.20;;;;;;;20.56;76.98;98415.98;431928;1273;99306;-39
2022/08/28 18:47:29;;;;;;;16.20;12.90;;;;;;;20.52;77.29;98413.59;431859;1273;112305;-40
2022/08/28 18:57:37;;;;;;;21.60;14.70;;;;;;;20.50;77.53;98417.77;432044;1273;109049;-40
2022/08/28 19:07:44;;;;;;;20.40;13.10;;;;;;;20.48;77.89;98428.39;431953;1273;98046;-40
2022/08/28 19:17:52;;;;;;;13.60;12.20;;;;;;;20.47;78.12;98438.25;431700;1274;109006;-41
2022/08/28 19:38:05;;;;;;;;;;;;;;;20.41;78.59;98447.70;432415;1273;112515;-43
2022/08/28 19:48:13;;;;;;;10.70;9.60;;;;;;;20.42;78.94;98455.16;432111;1273;108893;-42
2022/08/28 19:58:21;;;;;;;11.20;10.00;;;;;;;20.41;79.03;98465.59;431682;1273;97967;-41
2022/08/28 20:18:35;;;;;;;12.40;9.60;;;;;;;20.31;79.37;98481.48;431586;1273;99265;-41
2022/08/28 20:28:42;;;;;;;15.80;9.70;;;;;;;20.27;79.64;98488.10;432029;1273;113072;-41
2022/08/28 20:38:50;;;;;;;9.60;8.60;;;;;;;20.21;79.74;98494.70;431935;1273;108863;-41
2022/08/28 20:48:57;;;;;;;9.30;7.80;;;;;;;20.12;79.99;98492.98;432056;1273;101569;-41
2022/08/28 21:09:12;;;;;;;9.30;6.00;;;;;;;19.96;80.57;98494.24;431566;1274;99476;-41
2022/08/28 21:19:19;;;;;;;7.10;6.00;;;;;;;20.00;80.66;98492.98;431688;1273;112657;-41
2022/08/28 21:29:26;;;;;;;6.40;5.80;;;;;;;19.96;80.86;98495.16;431916;1273;107875;-40
2022/08/28 21:39:34;;;;;;;6.70;5.40;;;;;;;19.93;80.98;98492.73;431986;1272;98842;-41
2022/08/28 21:49:41;;;;;;;6.30;5.80;;;;;;;19.91;81.25;98494.95;431850;1273;109057;-41
2022/08/28 21:59:48;;;;;;;10.20;6.80;;;;;;;19.86;81.32;98499.87;432215;1273;99241;-41
2022/08/28 22:09:56;;;;;;;5.20;4.70;;;;;;;19.76;81.42;98510.65;431508;1273;112550;-40
2022/08/28 22:20:04;;;;;;;5.60;5.00;;;;;;;19.62;81.65;98510.27;431945;1273;108428;-41
2022/08/28 22:30:10;;;;;;;;;;;;;;;19.49;81.74;98512.12;431642;1273;98410;-41
2022/08/28 22:40:18;;;;;;;14.80;11.90;;;;;;;19.29;82.58;98519.24;431818;1273;109424;-41
2022/08/28 22:50:24;;;;;;;;;;;;;;;19.19;82.76;98531.55;432474;1273;98036;-41
2022/08/28 23:00:33;;;;;;;19.00;14.80;;;;;;;19.06;82.94;98532.19;432000;1273;112467;-40
2022/08/28 23:10:40;;;;;;;15.60;13.80;;;;;;;19.04;83.34;98536.35;432125;1272;108986;-40
2022/08/28 23:21:06;;;;;;;14.90;13.20;;;;;;;19.01;83.23;98537.83;432223;1273;98624;-40
2022/08/28 23:31:13;;;;;;;16.90;12.90;;;;;;;19.02;83.39;98538.31;431947;1273;107305;-40
2022/08/28 23:41:21;;;;;;;17.00;13.90;;;;;;;19.00;83.27;98543.58;431846;1272;99399;-41
2022/08/28 23:51:29;;;;;;;16.60;13.20;;;;;;;18.94;83.41;98543.92;431870;1273;112642;-40
